createdAt,value
2023-02-11T00:00:40.338Z,77.32
2023-02-11T00:01:41.934Z,77.26
2023-02-11T00:02:46.086Z,76.93
2023-02-11T00:03:49.337Z,77.15
2023-02-11T00:04:50.992Z,77.20
2023-02-11T00:06:02.712Z,76.95
2023-02-11T00:07:04.348Z,76.90
2023-02-11T00:08:06.029Z,76.84
2023-02-11T00:09:07.694Z,76.85
2023-02-11T00:10:09.572Z,76.73
2023-02-11T00:11:15.593Z,76.78
2023-02-11T00:12:19.661Z,76.64
2023-02-11T00:13:21.688Z,76.59
2023-02-11T00:14:23.313Z,76.71
2023-02-11T00:15:24.921Z,76.37
2023-02-11T00:16:26.716Z,76.15
2023-02-11T00:17:28.323Z,76.14
2023-02-11T00:18:30.340Z,76.32
2023-02-11T00:19:31.956Z,76.30
2023-02-11T00:20:33.561Z,76.41
2023-02-11T00:21:35.203Z,76.43
2023-02-11T00:22:36.790Z,76.45
2023-02-11T00:23:38.538Z,76.50
2023-02-11T00:24:40.189Z,77.18
2023-02-11T00:25:42.319Z,77.41
2023-02-11T00:26:44.963Z,77.31
2023-02-11T00:27:46.642Z,77.80
2023-02-11T00:28:48.628Z,78.14
2023-02-11T00:29:50.278Z,78.19
2023-02-11T00:30:58.120Z,77.90
2023-02-11T00:32:05.222Z,78.00
2023-02-11T00:33:06.914Z,77.64
2023-02-11T00:34:08.585Z,77.44
2023-02-11T00:35:10.160Z,77.70
2023-02-11T00:36:14.715Z,77.44
2023-02-11T00:37:16.797Z,77.69
2023-02-11T00:38:18.458Z,78.02
2023-02-11T00:39:20.114Z,77.68
2023-02-11T00:40:21.810Z,77.76
2023-02-11T00:41:23.729Z,77.66
2023-02-11T00:42:25.425Z,77.45
2023-02-11T00:43:27.114Z,77.70
2023-02-11T00:44:28.775Z,77.58
2023-02-11T00:45:30.813Z,77.38
2023-02-11T00:46:32.465Z,77.49
2023-02-11T00:47:34.180Z,77.45
2023-02-11T00:48:35.895Z,77.19
2023-02-11T00:49:39.692Z,77.00
2023-02-11T00:50:41.326Z,77.05
2023-02-11T00:51:42.920Z,77.03
2023-02-11T00:52:44.617Z,77.16
2023-02-11T00:53:46.289Z,77.63
2023-02-11T00:54:47.993Z,77.65
2023-02-11T00:55:49.809Z,77.46
2023-02-11T00:56:51.583Z,77.32
2023-02-11T00:57:53.174Z,77.41
2023-02-11T00:58:54.775Z,77.45
2023-02-11T00:59:56.422Z,77.22
2023-02-11T01:00:58.080Z,77.10
2023-02-11T01:01:59.711Z,77.39
2023-02-11T01:03:01.330Z,77.19
2023-02-11T01:04:03.065Z,77.31
2023-02-11T01:05:05.085Z,77.35
2023-02-11T01:06:07.529Z,77.61
2023-02-11T01:07:09.205Z,77.66
2023-02-11T01:08:10.823Z,77.85
2023-02-11T01:09:12.425Z,78.04
2023-02-11T01:10:14.214Z,78.25
2023-02-11T01:11:18.181Z,78.47
2023-02-11T01:12:19.799Z,78.38
2023-02-11T01:13:21.547Z,78.11
2023-02-11T01:14:23.194Z,77.88
2023-02-11T01:15:24.881Z,77.74
2023-02-11T01:16:26.493Z,77.63
2023-02-11T01:17:28.129Z,77.47
2023-02-11T01:18:29.777Z,77.33
2023-02-11T01:19:31.695Z,77.29
2023-02-11T01:20:33.389Z,77.27
2023-02-11T01:21:35.046Z,77.21
2023-02-11T01:22:39.581Z,77.28
2023-02-11T01:23:41.234Z,77.40
2023-02-11T01:24:42.828Z,77.38
2023-02-11T01:25:44.516Z,77.36
2023-02-11T01:26:46.182Z,77.23
2023-02-11T01:27:47.771Z,77.08
2023-02-11T01:28:49.389Z,76.99
2023-02-11T01:29:50.995Z,76.85
2023-02-11T01:30:52.957Z,76.84
2023-02-11T01:31:54.671Z,76.94
2023-02-11T01:32:56.276Z,76.97
2023-02-11T01:33:57.873Z,76.69
2023-02-11T01:34:59.472Z,76.57
2023-02-11T01:36:03.058Z,76.70
2023-02-11T01:37:04.720Z,76.94
2023-02-11T01:38:07.299Z,77.03
2023-02-11T01:39:08.974Z,77.00
2023-02-11T01:40:15.904Z,76.84
2023-02-11T01:41:17.570Z,76.84
2023-02-11T01:42:20.671Z,76.77
2023-02-11T01:43:22.870Z,76.94
2023-02-11T01:44:36.501Z,77.44
2023-02-11T01:45:47.323Z,77.07
2023-02-11T01:46:49.129Z,77.30
2023-02-11T01:47:50.807Z,77.42
2023-02-11T01:49:12.993Z,77.47
2023-02-11T01:50:14.662Z,77.50
2023-02-11T01:51:25.631Z,77.51
2023-02-11T01:52:32.737Z,77.76
2023-02-11T01:53:53.057Z,77.88
2023-02-11T01:55:15.577Z,77.84
2023-02-11T01:56:35.996Z,77.91
2023-02-11T01:57:39.464Z,78.01
2023-02-11T01:58:41.949Z,77.76
2023-02-11T02:00:03.965Z,77.77
2023-02-11T02:01:05.511Z,77.72
2023-02-11T02:02:09.722Z,77.67
2023-02-11T02:03:13.658Z,77.66
2023-02-11T02:04:15.515Z,77.82
2023-02-11T02:05:28.705Z,77.81
2023-02-11T02:06:35.437Z,77.58
2023-02-11T02:07:42.131Z,77.35
2023-02-11T02:08:55.897Z,77.52
2023-02-11T02:10:05.387Z,77.69
2023-02-11T02:11:07.049Z,77.61
2023-02-11T02:12:08.634Z,77.51
2023-02-11T02:13:10.724Z,77.61
2023-02-11T02:14:12.323Z,77.70
2023-02-11T02:15:39.471Z,77.86
2023-02-11T02:16:41.146Z,78.04
2023-02-11T02:17:47.064Z,78.22
2023-02-11T02:19:10.905Z,78.34
2023-02-11T02:20:40.099Z,78.14
2023-02-11T02:22:10.891Z,78.07
2023-02-11T02:23:12.477Z,77.84
2023-02-11T02:24:35.987Z,77.40
2023-02-11T02:26:08.314Z,76.77
2023-02-11T02:27:34.407Z,76.48
2023-02-11T02:29:04.442Z,76.37
2023-02-11T02:30:27.779Z,76.37
2023-02-11T02:31:52.997Z,76.53
2023-02-11T02:33:22.322Z,76.54
2023-02-11T02:34:30.836Z,76.81
2023-02-11T02:35:46.894Z,77.05
2023-02-11T02:36:54.234Z,77.29
2023-02-11T02:38:26.972Z,77.92
2023-02-11T02:39:31.246Z,77.34
2023-02-11T02:40:57.321Z,76.72
2023-02-11T02:41:58.935Z,76.32
2023-02-11T02:43:01.000Z,75.90
2023-02-11T02:44:02.691Z,75.62
2023-02-11T02:45:04.494Z,75.48
2023-02-11T02:46:19.315Z,75.46
2023-02-11T02:47:20.991Z,75.74
2023-02-11T02:48:32.782Z,76.01
2023-02-11T02:49:34.463Z,76.24
2023-02-11T02:50:36.787Z,76.69
2023-02-11T02:51:47.147Z,77.09
2023-02-11T02:52:57.248Z,77.43
2023-02-11T02:54:07.702Z,77.48
2023-02-11T02:55:09.461Z,77.79
2023-02-11T02:56:15.099Z,77.69
2023-02-11T02:57:28.633Z,77.42
2023-02-11T02:59:09.529Z,77.13
2023-02-11T03:00:29.912Z,77.22
2023-02-11T03:01:42.462Z,77.22
2023-02-11T03:02:59.283Z,77.15
2023-02-11T03:04:46.038Z,76.85
2023-02-11T03:05:55.040Z,76.75
2023-02-11T03:07:48.842Z,76.61
2023-02-11T03:09:11.954Z,76.67
2023-02-11T03:10:19.882Z,76.60
2023-02-11T03:11:21.540Z,76.92
2023-02-11T03:12:23.100Z,77.12
2023-02-11T03:13:27.045Z,76.88
2023-02-11T03:14:28.635Z,77.04
2023-02-11T03:15:31.382Z,76.96
2023-02-11T03:16:39.335Z,76.89
2023-02-11T03:17:42.022Z,76.92
2023-02-11T03:18:47.370Z,77.18
2023-02-11T03:19:48.964Z,77.27
2023-02-11T03:20:52.106Z,77.43
2023-02-11T03:21:53.880Z,77.32
2023-02-11T03:23:32.347Z,77.40
2023-02-11T03:24:35.396Z,77.60
2023-02-11T03:25:42.681Z,77.79
2023-02-11T03:26:51.893Z,78.30
2023-02-11T03:28:07.991Z,78.31
2023-02-11T03:29:14.876Z,78.24
2023-02-11T03:30:27.162Z,78.41
2023-02-11T03:31:33.844Z,78.59
2023-02-11T03:32:39.278Z,78.47
2023-02-11T03:33:51.203Z,78.25
2023-02-11T03:35:00.968Z,78.11
2023-02-11T03:36:21.857Z,78.08
2023-02-11T03:37:33.260Z,78.22
2023-02-11T03:38:47.596Z,78.27
2023-02-11T03:39:53.130Z,78.39
2023-02-11T03:40:54.732Z,78.47
2023-02-11T03:41:56.478Z,78.48
2023-02-11T03:43:08.764Z,78.27
2023-02-11T03:44:10.399Z,78.17
2023-02-11T03:45:13.703Z,77.93
2023-02-11T03:46:17.120Z,77.69
2023-02-11T03:47:20.125Z,77.57
2023-02-11T03:48:27.361Z,77.34
2023-02-11T03:49:29.084Z,77.33
2023-02-11T03:50:31.269Z,77.31
2023-02-11T03:51:32.928Z,77.35
2023-02-11T03:52:35.606Z,77.44
2023-02-11T03:53:37.422Z,77.40
2023-02-11T03:54:39.024Z,77.55
2023-02-11T03:55:40.795Z,77.86
2023-02-11T03:57:00.945Z,77.85
2023-02-11T03:58:02.591Z,77.74
2023-02-11T03:59:04.192Z,77.67
2023-02-11T04:00:06.712Z,77.75
2023-02-11T04:01:09.907Z,77.53
2023-02-11T04:02:11.575Z,77.40
2023-02-11T04:03:13.572Z,77.38
2023-02-11T04:04:15.407Z,77.48
2023-02-11T04:05:17.021Z,77.69
2023-02-11T04:06:18.662Z,78.02
2023-02-11T04:07:20.369Z,78.38
2023-02-11T04:08:21.965Z,78.63
2023-02-11T04:09:23.545Z,78.52
2023-02-11T04:10:25.242Z,78.30
2023-02-11T04:11:26.903Z,78.12
2023-02-11T04:12:28.502Z,77.92
2023-02-11T04:13:30.115Z,77.98
2023-02-11T04:14:31.714Z,78.07
2023-02-11T04:15:34.348Z,78.31
2023-02-11T04:16:36.007Z,78.56
2023-02-11T04:17:37.631Z,78.87
2023-02-11T04:18:40.510Z,79.11
2023-02-11T04:19:42.149Z,78.96
2023-02-11T04:20:43.746Z,78.73
2023-02-11T04:21:45.340Z,78.66
2023-02-11T04:22:47.494Z,78.60
2023-02-11T04:23:49.115Z,78.66
2023-02-11T04:24:51.268Z,78.24
2023-02-11T04:25:53.086Z,78.11
2023-02-11T04:26:54.892Z,78.25
2023-02-11T04:27:56.999Z,78.39
2023-02-11T04:28:58.704Z,78.30
2023-02-11T04:30:00.299Z,78.35
2023-02-11T04:31:02.075Z,78.40
2023-02-11T04:32:03.740Z,78.23
2023-02-11T04:33:06.295Z,78.15
2023-02-11T04:34:07.893Z,78.25
2023-02-11T04:35:09.576Z,78.19
2023-02-11T04:36:11.175Z,78.17
2023-02-11T04:37:13.826Z,78.23
2023-02-11T04:38:15.493Z,78.11
2023-02-11T04:39:17.114Z,78.53
2023-02-11T04:40:18.948Z,78.78
2023-02-11T04:41:20.547Z,79.01
2023-02-11T04:42:23.198Z,79.08
2023-02-11T04:43:24.816Z,78.96
2023-02-11T04:44:26.410Z,78.61
2023-02-11T04:45:28.027Z,78.46
2023-02-11T04:46:30.762Z,78.26
2023-02-11T04:47:32.378Z,77.98
2023-02-11T04:48:34.952Z,77.75
2023-02-11T04:49:36.612Z,77.60
2023-02-11T04:50:38.280Z,77.65
2023-02-11T04:51:39.925Z,77.75
2023-02-11T04:52:41.964Z,77.60
2023-02-11T04:53:43.583Z,77.65
2023-02-11T04:54:45.212Z,78.09
2023-02-11T04:55:50.249Z,78.13
2023-02-11T04:56:52.098Z,78.31
2023-02-11T04:57:55.381Z,78.47
2023-02-11T04:58:57.036Z,78.47
2023-02-11T04:59:58.649Z,78.31
2023-02-11T05:01:14.120Z,78.27
2023-02-11T05:02:15.840Z,78.02
2023-02-11T05:03:17.508Z,78.11
2023-02-11T05:04:19.148Z,77.86
2023-02-11T05:05:20.827Z,77.59
2023-02-11T05:06:22.425Z,77.18
2023-02-11T05:07:24.042Z,76.89
2023-02-11T05:08:25.696Z,76.65
2023-02-11T05:09:27.356Z,76.58
2023-02-11T05:10:29.056Z,76.53
2023-02-11T05:11:30.683Z,76.57
2023-02-11T05:12:32.332Z,77.17
2023-02-11T05:13:33.997Z,77.32
2023-02-11T05:14:35.639Z,77.58
2023-02-11T05:15:37.276Z,77.70
2023-02-11T05:16:39.001Z,77.76
2023-02-11T05:17:40.692Z,77.78
2023-02-11T05:18:42.704Z,77.60
2023-02-11T05:19:44.359Z,77.53
2023-02-11T05:20:45.972Z,77.24
2023-02-11T05:22:01.375Z,77.30
2023-02-11T05:23:03.560Z,77.31
2023-02-11T05:24:05.598Z,77.32
2023-02-11T05:25:07.460Z,77.39
2023-02-11T05:26:09.185Z,77.25
2023-02-11T05:27:10.830Z,77.39
2023-02-11T05:28:12.512Z,77.49
2023-02-11T05:29:14.215Z,77.69
2023-02-11T05:30:15.893Z,77.89
2023-02-11T05:31:17.663Z,77.93
2023-02-11T05:32:19.359Z,77.80
2023-02-11T05:33:20.985Z,77.96
2023-02-11T05:34:22.628Z,77.81
2023-02-11T05:35:24.241Z,77.70
2023-02-11T05:36:25.838Z,77.74
2023-02-11T05:37:27.565Z,77.66
2023-02-11T05:38:29.183Z,77.64
2023-02-11T05:39:30.801Z,77.49
2023-02-11T05:40:32.423Z,77.46
2023-02-11T05:41:34.029Z,77.37
2023-02-11T05:42:35.699Z,77.45
2023-02-11T05:43:37.418Z,77.22
2023-02-11T05:44:39.130Z,77.05
2023-02-11T05:45:40.770Z,77.26
2023-02-11T05:46:42.447Z,76.92
2023-02-11T05:47:44.153Z,76.99
2023-02-11T05:48:45.817Z,77.04
2023-02-11T05:49:47.462Z,76.84
2023-02-11T05:50:49.081Z,76.80
2023-02-11T05:51:50.752Z,76.86
2023-02-11T05:52:52.477Z,77.07
2023-02-11T05:53:54.253Z,76.94
2023-02-11T05:54:55.908Z,76.97
2023-02-11T05:55:57.632Z,77.03
2023-02-11T05:56:59.225Z,76.67
2023-02-11T05:58:00.849Z,76.49
2023-02-11T05:59:02.462Z,76.38
2023-02-11T06:00:05.073Z,76.40
2023-02-11T06:01:06.759Z,76.10
2023-02-11T06:02:08.976Z,75.89
2023-02-11T06:03:10.660Z,76.13
2023-02-11T06:04:12.270Z,76.36
2023-02-11T06:05:13.949Z,76.23
2023-02-11T06:06:15.744Z,76.04
2023-02-11T06:07:17.624Z,76.25
2023-02-11T06:08:19.231Z,76.35
2023-02-11T06:09:20.957Z,76.09
2023-02-11T06:10:22.581Z,75.81
2023-02-11T06:11:24.323Z,75.18
2023-02-11T06:12:25.961Z,75.07
2023-02-11T06:13:27.569Z,75.34
2023-02-11T06:14:29.173Z,75.50
2023-02-11T06:15:30.823Z,75.64
2023-02-11T06:16:32.580Z,75.61
2023-02-11T06:17:34.361Z,75.55
2023-02-11T06:18:36.097Z,75.43
2023-02-11T06:19:37.754Z,75.34
2023-02-11T06:20:41.576Z,75.40
2023-02-11T06:21:44.480Z,75.27
2023-02-11T06:22:46.395Z,75.19
2023-02-11T06:23:48.034Z,75.12
2023-02-11T06:25:00.836Z,75.32
2023-02-11T06:26:04.765Z,75.05
2023-02-11T06:27:06.381Z,75.11
2023-02-11T06:28:08.669Z,74.94
2023-02-11T06:29:10.286Z,74.69
2023-02-11T06:30:12.305Z,74.42
2023-02-11T06:31:14.150Z,74.06
2023-02-11T06:32:37.023Z,73.84
2023-02-11T06:33:37.619Z,73.77
2023-02-11T06:34:39.252Z,73.66
2023-02-11T06:35:41.002Z,73.62
2023-02-11T06:36:44.101Z,74.28
2023-02-11T06:37:46.871Z,74.30
2023-02-11T06:38:48.672Z,74.25
2023-02-11T06:39:50.344Z,74.74
2023-02-11T06:40:51.998Z,74.46
2023-02-11T06:41:53.600Z,74.03
2023-02-11T06:42:55.225Z,73.63
2023-02-11T06:43:56.871Z,73.36
2023-02-11T06:44:58.517Z,73.08
2023-02-11T06:46:00.210Z,72.91
2023-02-11T06:47:01.849Z,72.66
2023-02-11T06:48:03.528Z,72.46
2023-02-11T06:49:05.125Z,72.54
2023-02-11T06:50:07.931Z,72.94
2023-02-11T06:51:10.682Z,72.93
2023-02-11T06:52:12.383Z,73.09
2023-02-11T06:53:14.019Z,73.19
2023-02-11T06:54:15.612Z,73.06
2023-02-11T06:55:17.289Z,72.82
2023-02-11T06:56:20.167Z,72.63
2023-02-11T06:57:21.785Z,72.54
2023-02-11T06:58:23.396Z,72.72
2023-02-11T06:59:24.992Z,72.90
2023-02-11T07:00:26.910Z,73.20
2023-02-11T07:01:28.670Z,73.12
2023-02-11T07:02:30.377Z,72.91
2023-02-11T07:03:32.574Z,73.33
2023-02-11T07:04:34.243Z,73.28
2023-02-11T07:05:37.198Z,72.72
2023-02-11T07:06:38.810Z,73.65
2023-02-11T07:07:40.494Z,73.61
2023-02-11T07:08:43.147Z,72.84
2023-02-11T07:09:44.832Z,72.84
2023-02-11T07:10:46.454Z,73.32
2023-02-11T07:11:48.054Z,73.19
2023-02-11T07:12:49.645Z,73.01
2023-02-11T07:13:51.737Z,72.96
2023-02-11T07:14:53.386Z,73.18
2023-02-11T07:15:55.068Z,73.56
2023-02-11T07:16:56.731Z,73.83
2023-02-11T07:17:58.406Z,74.03
2023-02-11T07:19:00.220Z,74.16
2023-02-11T07:20:01.820Z,74.30
2023-02-11T07:21:07.606Z,74.39
2023-02-11T07:22:09.215Z,74.78
2023-02-11T07:23:10.903Z,74.81
2023-02-11T07:24:13.135Z,75.26
2023-02-11T07:25:15.674Z,75.33
2023-02-11T07:26:19.074Z,75.19
2023-02-11T07:27:20.685Z,74.94
2023-02-11T07:28:22.340Z,74.46
2023-02-11T07:29:24.006Z,74.22
2023-02-11T07:30:25.693Z,73.93
2023-02-11T07:31:28.587Z,73.76
2023-02-11T07:32:30.463Z,73.61
2023-02-11T07:33:32.082Z,73.48
2023-02-11T07:34:33.845Z,73.23
2023-02-11T07:35:35.481Z,73.06
2023-02-11T07:36:37.729Z,72.90
2023-02-11T07:37:39.345Z,72.60
2023-02-11T07:38:41.196Z,72.73
2023-02-11T07:39:42.794Z,72.56
2023-02-11T07:40:44.398Z,72.06
2023-02-11T07:41:47.859Z,72.05
2023-02-11T07:42:49.458Z,71.36
2023-02-11T07:43:51.207Z,71.01
2023-02-11T07:44:52.814Z,70.45
2023-02-11T07:45:54.406Z,70.49
2023-02-11T07:46:56.165Z,70.82
2023-02-11T07:47:57.882Z,70.52
2023-02-11T07:48:59.479Z,70.08
2023-02-11T07:50:01.161Z,69.87
2023-02-11T07:51:16.991Z,69.63
2023-02-11T07:52:18.676Z,69.94
2023-02-11T07:53:20.315Z,69.07
2023-02-11T07:54:22.146Z,69.99
2023-02-11T07:55:23.829Z,69.74
2023-02-11T07:56:25.510Z,69.45
2023-02-11T07:57:27.316Z,68.73
2023-02-11T07:58:28.996Z,68.42
2023-02-11T07:59:30.698Z,67.73
2023-02-11T08:00:32.327Z,67.77
2023-02-11T08:01:33.977Z,68.55
2023-02-11T08:02:35.674Z,69.87
2023-02-11T08:03:37.874Z,70.50
2023-02-11T08:04:39.496Z,70.13
2023-02-11T08:05:41.112Z,70.08
2023-02-11T08:06:43.383Z,70.06
2023-02-11T08:07:45.046Z,69.92
2023-02-11T08:08:47.175Z,70.03
2023-02-11T08:09:48.838Z,70.24
2023-02-11T08:10:50.720Z,69.82
2023-02-11T08:11:52.633Z,69.53
2023-02-11T08:12:55.212Z,68.63
2023-02-11T08:13:56.864Z,69.42
2023-02-11T08:14:58.531Z,68.64
2023-02-11T08:16:00.212Z,67.62
2023-02-11T08:17:01.889Z,67.32
2023-02-11T08:18:03.595Z,67.66
2023-02-11T08:19:07.534Z,67.02
2023-02-11T08:20:09.531Z,67.00
2023-02-11T08:21:11.208Z,66.96
2023-02-11T08:22:12.840Z,66.89
2023-02-11T08:23:14.462Z,66.99
2023-02-11T08:24:16.197Z,65.50
2023-02-11T08:25:17.857Z,65.40
2023-02-11T08:26:21.203Z,65.31
2023-02-11T08:27:22.834Z,64.32
2023-02-11T08:28:24.525Z,64.30
2023-02-11T08:29:26.333Z,64.21
2023-02-11T08:30:28.223Z,64.52
2023-02-11T08:31:37.662Z,64.40
2023-02-11T08:32:39.715Z,64.77
2023-02-11T08:33:41.748Z,64.68
2023-02-11T08:34:43.400Z,63.93
2023-02-11T08:35:45.061Z,63.70
2023-02-11T08:36:47.417Z,63.81
2023-02-11T08:37:49.054Z,63.73
2023-02-11T08:38:50.682Z,63.76
2023-02-11T08:39:52.303Z,63.91
2023-02-11T08:40:53.996Z,64.27
2023-02-11T08:41:56.748Z,64.26
2023-02-11T08:42:58.393Z,64.55
2023-02-11T08:44:00.104Z,64.25
2023-02-11T08:45:01.777Z,64.17
2023-02-11T08:46:03.693Z,64.01
2023-02-11T08:47:05.472Z,63.53
2023-02-11T08:48:07.164Z,64.31
2023-02-11T08:49:08.765Z,64.13
2023-02-11T08:50:10.497Z,64.43
2023-02-11T08:51:15.065Z,64.79
2023-02-11T08:52:16.797Z,64.49
2023-02-11T08:53:18.461Z,64.53
2023-02-11T08:54:20.128Z,64.06
2023-02-11T08:55:21.741Z,63.98
2023-02-11T08:56:23.788Z,64.11
2023-02-11T08:57:25.411Z,64.22
2023-02-11T08:58:27.030Z,64.11
2023-02-11T08:59:28.821Z,64.53
2023-02-11T09:00:30.672Z,64.57
2023-02-11T09:01:32.474Z,64.21
2023-02-11T09:02:34.266Z,63.97
2023-02-11T09:03:35.975Z,64.26
2023-02-11T09:04:37.580Z,64.20
2023-02-11T09:05:46.858Z,64.29
2023-02-11T09:06:48.493Z,64.31
2023-02-11T09:07:50.135Z,63.80
2023-02-11T09:08:54.874Z,63.71
2023-02-11T09:09:56.477Z,63.75
2023-02-11T09:10:58.124Z,63.92
2023-02-11T09:12:01.387Z,64.34
2023-02-11T09:13:03.078Z,63.89
2023-02-11T09:14:04.763Z,63.10
2023-02-11T09:15:06.742Z,62.89
2023-02-11T09:16:08.559Z,62.12
2023-02-11T09:17:10.312Z,61.81
2023-02-11T09:18:11.989Z,61.30
2023-02-11T09:19:13.711Z,61.01
2023-02-11T09:20:15.337Z,60.52
2023-02-11T09:21:17.226Z,60.39
2023-02-11T09:22:18.827Z,60.02
2023-02-11T09:23:20.477Z,59.85
2023-02-11T09:24:22.075Z,60.07
2023-02-11T09:25:23.678Z,60.07
2023-02-11T09:26:27.264Z,59.76
2023-02-11T09:27:28.871Z,59.75
2023-02-11T09:28:30.596Z,60.24
2023-02-11T09:29:32.208Z,59.74
2023-02-11T09:30:33.954Z,59.18
2023-02-11T09:31:35.869Z,59.16
2023-02-11T09:32:37.576Z,59.36
2023-02-11T09:33:39.790Z,59.06
2023-02-11T09:34:41.412Z,58.67
2023-02-11T09:35:43.076Z,59.08
2023-02-11T09:36:44.731Z,58.54
2023-02-11T09:37:46.337Z,58.24
2023-02-11T09:38:48.061Z,58.41
2023-02-11T09:39:49.674Z,58.42
2023-02-11T09:40:51.596Z,57.76
2023-02-11T09:42:08.338Z,57.69
2023-02-11T09:43:19.731Z,57.28
2023-02-11T09:44:26.356Z,57.94
2023-02-11T09:45:29.081Z,57.68
2023-02-11T09:46:33.350Z,57.45
2023-02-11T09:47:35.923Z,58.34
2023-02-11T09:48:41.712Z,58.33
2023-02-11T09:49:44.915Z,58.31
2023-02-11T09:50:57.569Z,57.84
2023-02-11T09:52:03.886Z,57.65
2023-02-11T09:53:32.545Z,57.59
2023-02-11T09:54:38.060Z,57.80
2023-02-11T09:55:42.804Z,57.66
2023-02-11T09:56:44.422Z,57.79
2023-02-11T09:57:46.033Z,57.34
2023-02-11T09:58:47.715Z,57.18
2023-02-11T09:59:49.528Z,57.12
2023-02-11T10:01:13.424Z,56.89
2023-02-11T10:02:38.144Z,56.73
2023-02-11T10:03:58.055Z,57.11
2023-02-11T10:05:53.679Z,56.14
2023-02-11T10:06:56.590Z,56.40
2023-02-11T10:08:02.653Z,56.46
2023-02-11T10:09:22.735Z,56.37
2023-02-11T10:10:45.649Z,56.27
2023-02-11T10:11:55.478Z,56.08
2023-02-11T10:13:09.391Z,56.46
2023-02-11T10:14:13.836Z,56.66
2023-02-11T10:15:24.494Z,56.87
2023-02-11T10:16:37.712Z,57.21
2023-02-11T10:18:07.702Z,57.88
2023-02-11T10:19:27.808Z,59.08
2023-02-11T10:20:36.437Z,58.81
2023-02-11T10:22:07.414Z,58.64
2023-02-11T10:23:20.973Z,58.73
2023-02-11T10:24:22.579Z,58.54
2023-02-11T10:25:34.147Z,58.25
2023-02-11T10:26:36.982Z,56.55
2023-02-11T10:27:38.587Z,56.62
2023-02-11T10:28:40.221Z,56.33
2023-02-11T10:29:46.142Z,54.94
2023-02-11T10:31:23.023Z,54.46
2023-02-11T10:32:43.110Z,54.32
2023-02-11T10:34:00.792Z,54.69
2023-02-11T10:35:04.148Z,53.79
2023-02-11T10:36:07.488Z,53.66
2023-02-11T10:37:11.487Z,53.54
2023-02-11T10:38:13.163Z,53.53
2023-02-11T10:39:23.121Z,53.63
2023-02-11T10:40:26.985Z,52.69
2023-02-11T10:41:32.981Z,52.69
2023-02-11T10:42:34.597Z,52.03
2023-02-11T10:43:36.348Z,51.78
2023-02-11T10:44:55.454Z,51.82
2023-02-11T10:45:57.243Z,51.84
2023-02-11T10:47:01.953Z,51.50
2023-02-11T10:48:06.586Z,51.40
2023-02-11T10:49:08.256Z,51.50
2023-02-11T10:50:28.047Z,51.79
2023-02-11T10:51:33.690Z,51.47
2023-02-11T10:52:35.340Z,51.16
2023-02-11T10:53:37.230Z,51.50
2023-02-11T10:54:38.826Z,51.15
2023-02-11T10:55:40.482Z,51.20
2023-02-11T10:56:55.223Z,50.59
2023-02-11T10:57:58.818Z,50.76
2023-02-11T10:59:02.049Z,50.42
2023-02-11T11:00:18.143Z,49.99
2023-02-11T11:01:24.758Z,49.93
2023-02-11T11:02:34.358Z,50.18
2023-02-11T11:03:56.224Z,50.13
2023-02-11T11:05:00.146Z,49.39
2023-02-11T11:06:02.815Z,48.88
2023-02-11T11:07:29.995Z,49.06
2023-02-11T11:08:50.612Z,49.05
2023-02-11T11:09:53.584Z,49.31
2023-02-11T11:11:06.595Z,49.19
2023-02-11T11:12:26.864Z,48.73
2023-02-11T11:13:32.283Z,49.18
2023-02-11T11:14:33.911Z,48.98
2023-02-11T11:15:35.750Z,49.32
2023-02-11T11:16:37.430Z,49.03
2023-02-11T11:17:39.053Z,49.15
2023-02-11T11:18:41.630Z,49.07
2023-02-11T11:19:43.431Z,48.86
2023-02-11T11:21:00.354Z,48.83
2023-02-11T11:22:02.194Z,49.04
2023-02-11T11:23:17.427Z,48.66
2023-02-11T11:24:33.582Z,48.42
2023-02-11T11:25:35.248Z,48.12
2023-02-11T11:26:41.818Z,48.29
2023-02-11T11:27:43.416Z,48.43
2023-02-11T11:29:09.224Z,48.40
2023-02-11T11:30:15.939Z,47.22
2023-02-11T11:31:25.313Z,47.43
2023-02-11T11:32:32.818Z,47.27
2023-02-11T11:33:34.964Z,47.99
2023-02-11T11:34:43.459Z,48.27
2023-02-11T11:35:45.144Z,48.44
2023-02-11T11:36:46.823Z,48.29
2023-02-11T11:37:53.129Z,48.01
2023-02-11T11:38:57.199Z,47.48
2023-02-11T11:40:18.042Z,47.21
2023-02-11T11:41:33.509Z,47.29
2023-02-11T11:42:36.626Z,47.75
2023-02-11T11:43:38.364Z,48.05
2023-02-11T11:44:40.035Z,47.34
2023-02-11T11:45:58.337Z,47.50
2023-02-11T11:47:11.718Z,48.37
2023-02-11T11:48:17.635Z,48.14
2023-02-11T11:49:39.924Z,48.09
2023-02-11T11:50:46.158Z,48.73
2023-02-11T11:52:26.578Z,48.42
2023-02-11T11:53:36.333Z,47.74
2023-02-11T11:54:38.006Z,47.31
2023-02-11T11:55:58.591Z,47.20
2023-02-11T11:57:04.910Z,47.62
2023-02-11T11:58:10.620Z,47.23
2023-02-11T11:59:14.945Z,46.66
2023-02-11T12:00:21.653Z,47.12
2023-02-11T12:01:41.256Z,46.96
2023-02-11T12:03:30.177Z,47.66
2023-02-11T12:04:43.088Z,47.64
2023-02-11T12:05:56.937Z,48.30
2023-02-11T12:07:30.533Z,46.43
2023-02-11T12:08:58.445Z,46.49
2023-02-11T12:10:15.052Z,45.19
2023-02-11T12:11:34.857Z,45.09
2023-02-11T12:13:04.069Z,45.37
2023-02-11T12:14:05.935Z,44.57
2023-02-11T12:15:35.384Z,44.58
2023-02-11T12:16:58.748Z,45.25
2023-02-11T12:18:24.871Z,44.85
2023-02-11T12:19:36.325Z,46.01
2023-02-11T12:20:50.619Z,46.02
2023-02-11T12:22:11.492Z,45.81
2023-02-11T12:23:34.709Z,46.41
2023-02-11T12:24:45.907Z,46.54
2023-02-11T12:25:56.466Z,47.00
2023-02-11T12:27:18.562Z,46.62
2023-02-11T12:28:24.054Z,46.45
2023-02-11T12:29:28.762Z,46.42
2023-02-11T12:30:46.620Z,44.68
2023-02-11T12:32:19.265Z,43.28
2023-02-11T12:33:51.827Z,41.57
2023-02-11T12:35:30.868Z,41.94
2023-02-11T12:36:54.870Z,42.26
2023-02-11T12:38:21.855Z,41.86
2023-02-11T12:40:11.682Z,41.26
2023-02-11T12:41:13.412Z,41.86
2023-02-11T12:42:52.311Z,41.44
2023-02-11T12:43:54.114Z,41.69
2023-02-11T12:45:11.675Z,40.67
2023-02-11T12:46:34.125Z,39.76
2023-02-11T12:47:44.619Z,39.35
2023-02-11T12:49:12.086Z,39.65
2023-02-11T12:50:41.124Z,39.51
2023-02-11T12:52:20.491Z,39.92
2023-02-11T12:53:43.904Z,40.24
2023-02-11T12:54:48.052Z,39.38
2023-02-11T12:55:52.124Z,39.66
2023-02-11T12:56:53.793Z,39.27
2023-02-11T12:57:57.118Z,39.57
2023-02-11T12:59:00.069Z,39.76
2023-02-11T13:00:05.058Z,41.34
2023-02-11T13:01:20.960Z,43.07
2023-02-11T13:02:41.090Z,43.33
2023-02-11T13:03:53.837Z,43.64
2023-02-11T13:05:02.461Z,43.79
2023-02-11T13:06:08.068Z,44.79
2023-02-11T13:07:22.400Z,44.36
2023-02-11T13:08:32.613Z,44.41
2023-02-11T13:09:40.690Z,44.76
2023-02-11T13:10:43.284Z,44.58
2023-02-11T13:11:52.146Z,43.83
2023-02-11T13:13:12.903Z,43.42
2023-02-11T13:14:19.328Z,43.35
2023-02-11T13:15:21.078Z,43.30
2023-02-11T13:16:46.055Z,43.43
2023-02-11T13:18:24.994Z,43.92
2023-02-11T13:19:35.974Z,44.33
2023-02-11T13:21:00.781Z,44.26
2023-02-11T13:22:13.426Z,43.94
2023-02-11T13:23:35.454Z,44.06
2023-02-11T13:25:17.130Z,44.24
2023-02-11T13:26:36.816Z,44.16
2023-02-11T13:27:45.875Z,44.03
2023-02-11T13:29:34.307Z,44.55
2023-02-11T13:30:36.963Z,44.74
2023-02-11T13:31:39.138Z,45.03
2023-02-11T13:32:56.442Z,44.78
2023-02-11T13:33:58.572Z,44.03
2023-02-11T13:35:00.689Z,43.63
2023-02-11T13:36:04.572Z,44.40
2023-02-11T13:37:07.868Z,44.26
2023-02-11T13:38:28.942Z,44.40
2023-02-11T13:39:30.679Z,44.08
2023-02-11T13:40:41.928Z,43.66
2023-02-11T13:41:45.587Z,42.56
2023-02-11T13:42:57.115Z,41.35
2023-02-11T13:44:05.700Z,39.89
2023-02-11T13:45:29.055Z,39.72
2023-02-11T13:46:51.060Z,39.50
2023-02-11T13:47:57.643Z,38.99
2023-02-11T13:48:59.954Z,38.81
2023-02-11T13:50:02.849Z,38.62
2023-02-11T13:51:09.161Z,39.16
2023-02-11T13:52:32.682Z,38.99
2023-02-11T13:54:03.595Z,38.82
2023-02-11T13:55:10.423Z,38.93
2023-02-11T13:56:23.384Z,39.35
2023-02-11T13:57:28.660Z,38.37
2023-02-11T13:58:30.659Z,38.97
2023-02-11T13:59:33.048Z,39.72
2023-02-11T14:00:34.861Z,39.86
2023-02-11T14:02:12.488Z,39.89
2023-02-11T14:03:32.707Z,39.30
2023-02-11T14:04:53.399Z,39.57
2023-02-11T14:06:28.876Z,39.63
2023-02-11T14:07:50.616Z,39.60
2023-02-11T14:09:34.250Z,39.75
2023-02-11T14:10:42.282Z,39.46
2023-02-11T14:11:48.245Z,39.91
2023-02-11T14:13:07.180Z,39.47
2023-02-11T14:14:26.266Z,39.77
2023-02-11T14:15:28.427Z,39.45
2023-02-11T14:16:38.297Z,39.75
2023-02-11T14:17:40.973Z,39.66